Barbeau, MI

3:25 PM EST on November 23, 2014 (GMT -0500)
Charlotte Beach | Change Station
CLOSE
Current Station
Personal Weather Station
Location: Barbeau, MI
Elevation: 571 ft
Nearby Weather Stations
Active Advisory: Dense Fog Advisory

Elev 571 ft 46.31 °N, 84.22 °W | Updated 14 minutes ago

Overcast
Overcast
42.5 °F
Feels Like 42 °F
N
3.0
Wind Variable Wind from SE
Gusts 5.0 mph

Today
High -- | Low -- °F
--% Chance of Precip.
Yesterday
High -- | Low -- °F
Precip. -- in
7:48 AM 4:56 PM
New Moon, 2% visible
Pressure 29.61 in
Visibility 0.2 miles
Clouds Overcast 200 ft
Windchill 42 °F
Dew Point 42 °F
Humidity 98%
Rainfall 0.04 in
Snow Depth Not available.
UV 0 out of 12
Pollen .10 out of 12
Air Quality Not available.
Flu Activity Not available.
METAR KCIU 232015Z AUTO 15008KT M1/4SM OVC002 05/05 A2961 RMK AO1

More Conditions Fewer Conditions

Pressure 29.61 in
Visibility 0.2 miles
Clouds Overcast 200 ft
Windchill 42 °F
Dew Point 42 °F
Humidity 98%
Rainfall 0.04 in
Snow Depth Not available.
UV 0 out of 12
Pollen .10 out of 12
Air Quality Not available.
Flu Activity Not available.
METAR KCIU 232015Z AUTO 15008KT M1/4SM OVC002 05/05 A2961 RMK AO1

More Conditions Fewer Conditions

Nowcast | as of 3:00 PM EST on November 23, 2014

dense fog advisory in effect until 7 PM EST this evening... At 4 PM...areas of dense fog. Rain. Temperature 41. Visibility one quarter mile or less at times. Southeast winds 8 mph. At 6 PM...areas of dense fog. Rain. Temperature 42. Visibility one quarter mile or less at times. Southeast winds 8 mph. At 8 PM...areas of fog. Rain. Temperature 42. Southeast winds 8 mph. At 10 PM...areas of fog. Rain. Temperature 41. Southeast winds 9 mph.

×

10-Day Weather Forecast

Almanac

Astronomy

Nov. 23, 2014 Rise Set
Actual Time
Civil Twilight
Nautical Twilight
Astronomical Twilight
Moon
Length of Visible Light
Length of Day
Tomorrow will be .
, % of the Moon is Illuminated

Today's Extremes

State Highs State Lows

Community

WunderPhotos

Upload Photos

1,773,169 photos uploaded!

WunderBlogs® & News

Nearby

Air Quality

  Air Quality AQ Index Pollutant
Not available.

Snow Depth

Station Depth Elevation

Earthquake Activity

City Distance Mag. Time & Date
Minimum magnitude displayed is 2.5.

Coastal Water Temperatures

Place Temperature

Nearby Weather Stations